createdAt,value
2023-03-20T00:02:25.023Z,68.16
2023-03-20T00:04:53.810Z,68.25
2023-03-20T00:07:23.525Z,68.29
2023-03-20T00:09:51.942Z,68.23
2023-03-20T00:12:26.175Z,68.37
2023-03-20T00:14:54.843Z,68.10
2023-03-20T00:17:23.257Z,68.35
2023-03-20T00:19:51.611Z,68.03
2023-03-20T00:22:20.076Z,68.28
2023-03-20T00:24:49.807Z,68.00
2023-03-20T00:27:19.177Z,68.23
2023-03-20T00:29:47.721Z,68.01
2023-03-20T00:32:16.531Z,68.12
2023-03-20T00:34:45.256Z,68.36
2023-03-20T00:37:13.775Z,68.42
2023-03-20T00:39:42.546Z,68.59
2023-03-20T00:42:21.712Z,69.47
2023-03-20T00:44:53.956Z,69.16
2023-03-20T00:47:24.594Z,69.67
2023-03-20T00:49:54.592Z,69.74
2023-03-20T00:52:24.092Z,69.93
2023-03-20T00:54:52.600Z,69.80
2023-03-20T00:57:25.497Z,69.60
2023-03-20T00:59:58.843Z,69.80
2023-03-20T01:02:28.929Z,69.89
2023-03-20T01:04:58.414Z,69.83
2023-03-20T01:07:27.832Z,70.20
2023-03-20T01:09:56.281Z,70.20
2023-03-20T01:12:26.589Z,70.33
2023-03-20T01:14:56.977Z,70.35
2023-03-20T01:17:27.492Z,70.53
2023-03-20T01:19:56.583Z,70.49
2023-03-20T01:22:24.962Z,70.75
2023-03-20T01:24:53.339Z,70.44
2023-03-20T01:27:22.420Z,70.61
2023-03-20T01:29:52.148Z,70.83
2023-03-20T01:32:21.371Z,70.99
2023-03-20T01:34:49.775Z,70.83
2023-03-20T01:37:22.213Z,71.00
2023-03-20T01:39:50.665Z,71.14
2023-03-20T01:42:19.322Z,71.22
2023-03-20T01:44:48.581Z,71.27
2023-03-20T01:47:21.083Z,71.44
2023-03-20T01:50:19.208Z,71.47
2023-03-20T01:52:51.420Z,71.34
2023-03-20T01:55:21.925Z,71.31
2023-03-20T01:57:53.838Z,71.17
2023-03-20T02:00:26.326Z,71.44
2023-03-20T02:02:57.582Z,71.29
2023-03-20T02:05:26.542Z,71.12
2023-03-20T02:08:11.103Z,71.44
2023-03-20T02:10:40.780Z,71.12
2023-03-20T02:13:11.002Z,71.18
2023-03-20T02:15:56.667Z,71.87
2023-03-20T02:18:26.977Z,71.04
2023-03-20T02:21:37.140Z,71.65
2023-03-20T02:24:47.407Z,71.74
2023-03-20T02:27:24.775Z,71.11
2023-03-20T02:30:31.241Z,71.38
2023-03-20T02:33:46.690Z,71.80
2023-03-20T02:36:53.662Z,72.08
2023-03-20T02:39:38.081Z,71.64
2023-03-20T02:42:17.230Z,71.50
2023-03-20T02:44:54.398Z,71.68
2023-03-20T02:47:28.635Z,71.85
2023-03-20T02:50:11.049Z,72.40
2023-03-20T02:52:47.505Z,72.20
2023-03-20T02:55:25.192Z,72.11
2023-03-20T02:58:00.658Z,72.57
2023-03-20T03:00:35.554Z,72.57
2023-03-20T03:03:11.040Z,72.71
2023-03-20T03:05:45.028Z,72.77
2023-03-20T03:08:15.886Z,72.40
2023-03-20T03:10:50.488Z,72.77
2023-03-20T03:13:24.228Z,72.87
2023-03-20T03:15:56.576Z,72.74
2023-03-20T03:18:27.705Z,72.69
2023-03-20T03:20:59.283Z,73.22
2023-03-20T03:23:32.582Z,73.46
2023-03-20T03:26:06.740Z,73.17
2023-03-20T03:28:40.126Z,73.19
2023-03-20T03:31:13.601Z,73.51
2023-03-20T03:33:45.803Z,73.74
2023-03-20T03:36:24.179Z,73.86
2023-03-20T03:38:59.226Z,74.30
2023-03-20T03:41:33.568Z,73.91
2023-03-20T03:44:09.750Z,74.15
2023-03-20T03:46:44.989Z,74.39
2023-03-20T03:49:20.273Z,74.24
2023-03-20T03:51:52.998Z,74.34
2023-03-20T03:54:26.146Z,74.12
2023-03-20T03:56:58.673Z,74.25
2023-03-20T03:59:33.712Z,74.60
2023-03-20T04:02:05.302Z,74.67
2023-03-20T04:04:35.397Z,74.59
2023-03-20T04:07:04.064Z,74.84
2023-03-20T04:09:33.600Z,74.92
2023-03-20T04:12:03.779Z,74.97
2023-03-20T04:14:32.247Z,74.70
2023-03-20T04:17:00.655Z,74.71
2023-03-20T04:19:29.105Z,75.34
2023-03-20T04:21:57.449Z,75.57
2023-03-20T04:24:26.513Z,75.23
2023-03-20T04:26:54.941Z,75.27
2023-03-20T04:29:24.636Z,75.33
2023-03-20T04:31:53.066Z,75.51
2023-03-20T04:34:21.558Z,75.33
2023-03-20T04:36:50.272Z,75.42
2023-03-20T04:39:20.589Z,75.08
2023-03-20T04:41:49.066Z,75.33
2023-03-20T04:44:17.474Z,75.26
2023-03-20T04:46:47.246Z,75.30
2023-03-20T04:49:15.879Z,75.61
2023-03-20T04:51:44.270Z,75.78
2023-03-20T04:54:12.568Z,75.86
2023-03-20T04:56:41.018Z,75.52
2023-03-20T04:59:09.411Z,75.96
2023-03-20T05:01:38.113Z,75.77
2023-03-20T05:04:08.118Z,75.98
2023-03-20T05:06:37.092Z,75.55
2023-03-20T05:09:05.606Z,75.82
2023-03-20T05:11:34.107Z,75.69
2023-03-20T05:14:02.509Z,76.18
2023-03-20T05:16:31.120Z,76.12
2023-03-20T05:18:59.993Z,76.42
2023-03-20T05:21:29.739Z,76.56
2023-03-20T05:23:58.082Z,76.51
2023-03-20T05:26:26.467Z,76.47
2023-03-20T05:28:54.833Z,76.40
2023-03-20T05:31:23.537Z,76.70
2023-03-20T05:33:51.972Z,77.01
2023-03-20T05:36:20.515Z,76.42
2023-03-20T05:38:50.312Z,76.87
2023-03-20T05:41:18.733Z,77.03
2023-03-20T05:43:47.165Z,77.14
2023-03-20T05:46:15.629Z,77.52
2023-03-20T05:48:44.358Z,77.18
2023-03-20T05:51:12.737Z,77.42
2023-03-20T05:53:41.153Z,77.16
2023-03-20T05:56:11.172Z,77.43
2023-03-20T05:58:39.766Z,77.68
2023-03-20T06:01:08.390Z,77.14
2023-03-20T06:03:37.009Z,77.39
2023-03-20T06:06:06.220Z,77.74
2023-03-20T06:08:36.405Z,77.44
2023-03-20T06:11:05.181Z,78.02
2023-03-20T06:13:34.928Z,77.66
2023-03-20T06:16:03.482Z,78.32
2023-03-20T06:18:32.083Z,77.75
2023-03-20T06:21:02.040Z,78.05
2023-03-20T06:23:30.529Z,78.03
2023-03-20T06:25:58.889Z,78.68
2023-03-20T06:28:27.251Z,78.29
2023-03-20T06:30:57.370Z,78.11
2023-03-20T06:33:26.046Z,78.21
2023-03-20T06:35:54.727Z,78.60
2023-03-20T06:38:23.211Z,78.89
2023-03-20T06:40:51.735Z,78.73
2023-03-20T06:43:20.201Z,78.88
2023-03-20T06:45:48.608Z,78.71
2023-03-20T06:48:22.164Z,78.41
2023-03-20T06:50:51.300Z,78.89
2023-03-20T06:53:19.864Z,78.89
2023-03-20T06:55:49.422Z,78.82
2023-03-20T06:58:18.156Z,79.02
2023-03-20T07:00:47.543Z,78.80
2023-03-20T07:03:16.766Z,78.92
2023-03-20T07:05:46.706Z,78.76
2023-03-20T07:08:15.153Z,78.96
2023-03-20T07:10:43.583Z,78.87
2023-03-20T07:13:12.171Z,79.13
2023-03-20T07:15:50.664Z,78.81
2023-03-20T07:18:26.435Z,78.81
2023-03-20T07:21:01.805Z,79.15
2023-03-20T07:23:30.760Z,78.86
2023-03-20T07:25:59.432Z,78.95
2023-03-20T07:28:28.082Z,78.68
2023-03-20T07:31:00.488Z,78.71
2023-03-20T07:33:30.417Z,78.81
2023-03-20T07:36:00.385Z,78.64
2023-03-20T07:38:28.871Z,78.68
2023-03-20T07:40:57.265Z,78.98
2023-03-20T07:43:25.726Z,78.64
2023-03-20T07:45:54.112Z,78.73
2023-03-20T07:48:22.497Z,78.80
2023-03-20T07:50:50.980Z,78.79
2023-03-20T07:53:20.706Z,78.56
2023-03-20T07:55:49.183Z,78.81
2023-03-20T07:58:17.564Z,78.54
2023-03-20T08:00:46.057Z,78.42
2023-03-20T08:03:14.581Z,78.70
2023-03-20T08:05:45.162Z,78.81
2023-03-20T08:08:15.428Z,78.57
2023-03-20T08:10:45.385Z,78.66
2023-03-20T08:13:13.771Z,78.33
2023-03-20T08:15:42.166Z,78.14
2023-03-20T08:18:10.780Z,78.36
2023-03-20T08:20:39.165Z,78.32
2023-03-20T08:23:07.898Z,78.13
2023-03-20T08:25:36.495Z,77.59
2023-03-20T08:28:06.367Z,77.50
2023-03-20T08:30:34.797Z,77.71
2023-03-20T08:33:03.280Z,77.45
2023-03-20T08:35:33.647Z,77.75
2023-03-20T08:38:03.450Z,77.71
2023-03-20T08:40:32.363Z,77.35
2023-03-20T08:43:00.951Z,77.31
2023-03-20T08:45:30.772Z,77.03
2023-03-20T08:47:59.226Z,76.84
2023-03-20T08:50:27.709Z,76.72
2023-03-20T08:52:56.500Z,76.72
2023-03-20T08:55:24.953Z,76.75
2023-03-20T08:57:54.525Z,76.53
2023-03-20T09:00:23.785Z,76.37
2023-03-20T09:02:53.715Z,75.76
2023-03-20T09:05:22.176Z,75.71
2023-03-20T09:07:51.535Z,75.24
2023-03-20T09:10:20.088Z,75.15
2023-03-20T09:12:48.469Z,75.15
2023-03-20T09:15:16.905Z,75.05
2023-03-20T09:17:45.391Z,75.10
2023-03-20T09:20:15.284Z,74.90
2023-03-20T09:22:49.876Z,74.60
2023-03-20T09:25:18.295Z,74.37
2023-03-20T09:27:46.858Z,74.32
2023-03-20T09:30:15.738Z,74.29
2023-03-20T09:32:44.349Z,73.87
2023-03-20T09:35:12.845Z,73.82
2023-03-20T09:37:42.680Z,73.27
2023-03-20T09:40:25.584Z,73.33
2023-03-20T09:43:02.560Z,73.23
2023-03-20T09:45:42.944Z,72.86
2023-03-20T09:48:22.587Z,72.28
2023-03-20T09:51:00.357Z,72.18
2023-03-20T09:53:35.889Z,72.15
2023-03-20T09:56:06.031Z,71.73
2023-03-20T09:58:37.062Z,71.45
2023-03-20T10:01:08.252Z,70.79
2023-03-20T10:03:44.021Z,70.40
2023-03-20T10:06:14.905Z,70.40
2023-03-20T10:08:46.422Z,70.28
2023-03-20T10:11:34.666Z,69.67
2023-03-20T10:14:22.564Z,69.90
2023-03-20T10:17:05.381Z,69.65
2023-03-20T10:19:38.141Z,69.81
2023-03-20T10:22:16.167Z,69.85
2023-03-20T10:24:50.965Z,69.57
2023-03-20T10:27:26.250Z,69.50
2023-03-20T10:30:12.548Z,68.98
2023-03-20T10:32:50.679Z,69.33
2023-03-20T10:35:24.834Z,68.78
2023-03-20T10:38:07.516Z,68.42
2023-03-20T10:40:39.536Z,68.33
2023-03-20T10:43:16.555Z,67.87
2023-03-20T10:45:49.030Z,68.03
2023-03-20T10:48:24.651Z,67.82
2023-03-20T10:50:56.205Z,68.11
2023-03-20T10:53:33.293Z,67.82
2023-03-20T10:56:07.162Z,67.82
2023-03-20T10:58:40.522Z,67.85
2023-03-20T11:01:09.271Z,67.88
2023-03-20T11:03:39.927Z,67.93
2023-03-20T11:06:18.223Z,67.71
2023-03-20T11:08:50.963Z,67.58
2023-03-20T11:11:35.792Z,67.16
2023-03-20T11:14:18.697Z,67.30
2023-03-20T11:16:51.513Z,67.06
2023-03-20T11:19:22.073Z,66.91
2023-03-20T11:21:52.794Z,66.38
2023-03-20T11:24:28.313Z,66.23
2023-03-20T11:27:07.492Z,65.97
2023-03-20T11:29:36.551Z,65.89
2023-03-20T11:32:08.202Z,65.66
2023-03-20T11:34:41.064Z,65.80
2023-03-20T11:37:23.613Z,65.11
2023-03-20T11:39:58.475Z,65.46
2023-03-20T11:42:30.485Z,65.34
2023-03-20T11:45:05.623Z,65.53
2023-03-20T11:47:36.592Z,65.40
2023-03-20T11:50:07.219Z,65.59
2023-03-20T11:52:38.428Z,65.69
2023-03-20T11:55:23.510Z,65.34
2023-03-20T11:57:57.993Z,65.52
2023-03-20T12:00:30.754Z,65.63
2023-03-20T12:02:59.276Z,65.56
2023-03-20T12:05:34.038Z,65.25
2023-03-20T12:08:07.157Z,65.57
2023-03-20T12:10:40.365Z,65.29
2023-03-20T12:13:18.228Z,65.53
2023-03-20T12:15:49.186Z,65.41
2023-03-20T12:18:33.066Z,65.40
2023-03-20T12:21:08.986Z,65.51
2023-03-20T12:23:41.906Z,65.44
2023-03-20T12:26:14.950Z,65.36
2023-03-20T12:28:52.838Z,64.87
2023-03-20T12:31:26.951Z,64.73
2023-03-20T12:34:01.224Z,64.78
2023-03-20T12:36:33.891Z,64.56
2023-03-20T12:39:05.016Z,64.59
2023-03-20T12:41:42.470Z,64.22
2023-03-20T12:44:36.934Z,63.95
2023-03-20T12:47:23.699Z,64.38
2023-03-20T12:50:01.236Z,64.46
2023-03-20T12:52:38.711Z,64.63
2023-03-20T12:55:17.285Z,64.92
2023-03-20T12:57:57.215Z,65.20
2023-03-20T13:00:37.324Z,65.48
2023-03-20T13:03:29.130Z,65.70
2023-03-20T13:06:10.110Z,65.81
2023-03-20T13:09:13.571Z,65.67
2023-03-20T13:11:48.103Z,65.92
2023-03-20T13:14:22.683Z,65.65
2023-03-20T13:16:59.638Z,65.56
2023-03-20T13:19:35.237Z,65.66
2023-03-20T13:22:08.129Z,65.36
2023-03-20T13:24:42.246Z,65.29
2023-03-20T13:27:24.822Z,65.51
2023-03-20T13:30:00.175Z,65.24
2023-03-20T13:32:42.162Z,65.37
2023-03-20T13:35:28.506Z,64.94
2023-03-20T13:38:06.963Z,65.05
2023-03-20T13:40:41.080Z,65.44
2023-03-20T13:43:21.927Z,65.20
2023-03-20T13:45:52.331Z,65.24
2023-03-20T13:48:30.224Z,64.88
2023-03-20T13:51:06.775Z,64.87
2023-03-20T13:53:46.133Z,64.94
2023-03-20T13:56:23.573Z,64.68
2023-03-20T13:59:03.860Z,64.68
2023-03-20T14:01:42.415Z,64.47
2023-03-20T14:04:17.256Z,64.75
2023-03-20T14:06:51.370Z,64.76
2023-03-20T14:09:33.672Z,64.49
2023-03-20T14:12:05.722Z,64.63
2023-03-20T14:14:42.169Z,64.41
2023-03-20T14:17:18.213Z,64.34
2023-03-20T14:19:50.551Z,64.19
2023-03-20T14:22:21.649Z,64.35
2023-03-20T14:25:00.113Z,64.11
2023-03-20T14:27:44.042Z,63.95
2023-03-20T14:30:44.139Z,63.81
2023-03-20T14:33:32.369Z,63.74
2023-03-20T14:36:21.863Z,63.65
2023-03-20T14:39:15.916Z,63.42
2023-03-20T14:41:59.783Z,63.56
2023-03-20T14:44:39.745Z,63.74
2023-03-20T14:47:21.940Z,63.96
2023-03-20T14:49:55.348Z,63.38
2023-03-20T14:52:52.574Z,63.12
2023-03-20T14:55:49.270Z,63.40
2023-03-20T14:58:49.361Z,63.14
2023-03-20T15:01:25.269Z,63.20
2023-03-20T15:03:57.595Z,63.21
2023-03-20T15:06:28.006Z,63.04
2023-03-20T15:09:06.846Z,62.78
2023-03-20T15:11:36.167Z,62.86
2023-03-20T15:14:07.931Z,62.65
2023-03-20T15:16:38.118Z,62.84
2023-03-20T15:19:16.486Z,62.15
2023-03-20T15:21:48.025Z,62.03
2023-03-20T15:24:23.089Z,62.00
2023-03-20T15:26:57.097Z,61.42
2023-03-20T15:29:25.976Z,61.49
2023-03-20T15:32:12.822Z,61.26
2023-03-20T15:34:44.170Z,61.19
2023-03-20T15:37:16.471Z,61.29
2023-03-20T15:39:48.524Z,61.38
2023-03-20T15:42:20.426Z,61.59
2023-03-20T15:44:51.987Z,61.97
2023-03-20T15:47:22.376Z,61.45
2023-03-20T15:49:53.738Z,61.38
2023-03-20T15:52:28.730Z,60.98
2023-03-20T15:55:00.735Z,60.81
2023-03-20T15:57:35.926Z,61.06
2023-03-20T16:00:06.778Z,61.03
2023-03-20T16:02:37.465Z,61.26
2023-03-20T16:05:10.303Z,61.20
2023-03-20T16:07:40.725Z,61.45
2023-03-20T16:10:18.581Z,61.26
2023-03-20T16:12:49.471Z,61.21
2023-03-20T16:15:31.864Z,61.23
2023-03-20T16:18:02.315Z,61.79
2023-03-20T16:20:35.701Z,61.77
2023-03-20T16:23:08.402Z,62.00
2023-03-20T16:25:39.138Z,61.66
2023-03-20T16:28:08.125Z,61.52
2023-03-20T16:30:37.158Z,61.53
2023-03-20T16:33:10.583Z,61.50
2023-03-20T16:35:41.297Z,61.61
2023-03-20T16:38:18.234Z,61.69
2023-03-20T16:40:49.612Z,61.56
2023-03-20T16:43:20.498Z,61.98
2023-03-20T16:45:54.636Z,61.84
2023-03-20T16:48:31.392Z,61.81
2023-03-20T16:51:04.158Z,62.07
2023-03-20T16:53:39.026Z,62.21
2023-03-20T16:56:13.478Z,62.33
2023-03-20T16:58:44.329Z,62.51
2023-03-20T17:01:17.566Z,62.51
2023-03-20T17:03:50.041Z,62.60
2023-03-20T17:06:35.863Z,62.75
2023-03-20T17:09:22.199Z,63.04
2023-03-20T17:11:58.174Z,63.36
2023-03-20T17:14:27.095Z,63.55
2023-03-20T17:16:57.768Z,63.97
2023-03-20T17:19:26.253Z,63.93
2023-03-20T17:21:54.999Z,63.98
2023-03-20T17:24:23.352Z,64.08
2023-03-20T17:26:55.928Z,64.30
2023-03-20T17:29:24.393Z,64.49
2023-03-20T17:31:52.930Z,64.52
2023-03-20T17:34:21.546Z,64.65
2023-03-20T17:36:50.149Z,64.80
2023-03-20T17:39:20.979Z,64.99
2023-03-20T17:41:49.575Z,64.99
2023-03-20T17:44:19.683Z,65.14
2023-03-20T17:46:57.742Z,65.01
2023-03-20T17:49:28.249Z,64.98
2023-03-20T17:52:00.470Z,65.11
2023-03-20T17:54:28.998Z,65.20
2023-03-20T17:56:58.611Z,65.39
2023-03-20T17:59:31.135Z,65.30
2023-03-20T18:01:59.998Z,65.45
2023-03-20T18:04:28.419Z,65.21
2023-03-20T18:06:56.815Z,65.35
2023-03-20T18:09:25.878Z,65.54
2023-03-20T18:11:54.376Z,65.99
2023-03-20T18:14:22.795Z,66.01
2023-03-20T18:16:52.558Z,65.97
2023-03-20T18:19:24.572Z,66.18
2023-03-20T18:21:53.116Z,66.25
2023-03-20T18:24:22.070Z,66.03
2023-03-20T18:26:51.283Z,66.39
2023-03-20T18:29:20.640Z,66.47
2023-03-20T18:31:49.181Z,66.39
2023-03-20T18:34:19.038Z,66.53
2023-03-20T18:36:47.532Z,66.87
2023-03-20T18:39:20.833Z,67.25
2023-03-20T18:41:49.212Z,67.64
2023-03-20T18:44:18.082Z,67.34
2023-03-20T18:46:46.611Z,67.67
2023-03-20T18:49:17.232Z,67.68
2023-03-20T18:51:47.734Z,67.61
2023-03-20T18:54:16.553Z,67.83
2023-03-20T18:56:44.985Z,68.21
2023-03-20T18:59:14.278Z,68.58
2023-03-20T19:01:42.795Z,68.74
2023-03-20T19:04:11.387Z,68.21
2023-03-20T19:06:39.820Z,68.05
2023-03-20T19:09:12.646Z,68.08
2023-03-20T19:11:41.082Z,68.07
2023-03-20T19:14:09.458Z,67.80
2023-03-20T19:16:38.516Z,68.33
2023-03-20T19:19:08.849Z,68.07
2023-03-20T19:21:37.240Z,68.45
2023-03-20T19:24:07.557Z,68.02
2023-03-20T19:26:38.698Z,68.20
2023-03-20T19:29:09.074Z,68.25
2023-03-20T19:31:37.998Z,68.24
2023-03-20T19:34:06.907Z,67.98
2023-03-20T19:36:38.090Z,68.37
2023-03-20T19:39:08.826Z,68.14
2023-03-20T19:41:38.712Z,68.70
2023-03-20T19:44:07.253Z,68.09
2023-03-20T19:46:40.214Z,68.76
2023-03-20T19:49:18.359Z,68.30
2023-03-20T19:51:48.093Z,68.34
2023-03-20T19:54:19.609Z,68.75
2023-03-20T19:56:49.534Z,68.68
2023-03-20T19:59:17.899Z,68.62
2023-03-20T20:01:47.258Z,68.74
2023-03-20T20:04:16.756Z,68.74
2023-03-20T20:06:47.331Z,68.44
2023-03-20T20:09:16.660Z,68.41
2023-03-20T20:11:46.178Z,68.09
2023-03-20T20:14:15.963Z,68.45
2023-03-20T20:16:45.909Z,68.78
2023-03-20T20:19:14.670Z,68.29
2023-03-20T20:24:32.001Z,69.05
2023-03-20T20:27:15.748Z,68.50
2023-03-20T20:29:48.124Z,69.05
2023-03-20T20:32:17.260Z,68.41
2023-03-20T20:35:35.012Z,68.27
2023-03-20T20:38:25.183Z,68.42
2023-03-20T20:40:26.683Z,68.08
2023-03-20T20:43:01.449Z,68.39
2023-03-20T20:45:32.612Z,68.41
2023-03-20T20:48:01.572Z,68.32
2023-03-20T20:50:32.964Z,68.30
2023-03-20T20:53:03.654Z,68.45
2023-03-20T20:55:32.194Z,68.95
2023-03-20T20:58:01.368Z,69.35
2023-03-20T21:00:45.754Z,69.09
2023-03-20T21:03:16.291Z,69.05
2023-03-20T21:05:44.731Z,69.33
2023-03-20T21:08:14.134Z,69.36
2023-03-20T21:10:44.999Z,69.65
2023-03-20T21:13:13.546Z,69.76
2023-03-20T21:15:43.848Z,69.81
2023-03-20T21:18:12.400Z,69.69
2023-03-20T21:20:41.029Z,69.28
2023-03-20T21:23:09.393Z,69.80
2023-03-20T21:25:40.953Z,69.86
2023-03-20T21:28:10.467Z,69.80
2023-03-20T21:30:49.910Z,69.68
2023-03-20T21:33:31.661Z,70.21
2023-03-20T21:36:00.638Z,70.24
2023-03-20T21:39:02.051Z,70.34
2023-03-20T21:41:18.155Z,70.44
2023-03-20T21:43:47.326Z,70.27
2023-03-20T21:49:58.471Z,70.39
2023-03-20T22:03:28.807Z,71.04
2023-03-20T22:12:20.375Z,70.87
2023-03-20T22:17:56.113Z,70.98
2023-03-20T22:32:18.619Z,71.07
2023-03-20T22:43:00.107Z,71.22
2023-03-20T22:45:42.632Z,71.35
2023-03-20T22:48:15.742Z,71.31
2023-03-20T22:50:44.233Z,71.29
2023-03-20T22:53:12.577Z,71.42
2023-03-20T22:55:45.595Z,71.50
2023-03-20T22:58:15.143Z,71.70
2023-03-20T23:00:44.083Z,71.92
2023-03-20T23:03:29.523Z,72.50
2023-03-20T23:06:07.432Z,72.29
2023-03-20T23:08:48.745Z,72.54
2023-03-20T23:11:20.674Z,72.33
2023-03-20T23:13:49.336Z,72.23
2023-03-20T23:16:17.730Z,72.42
2023-03-20T23:18:46.141Z,72.73
2023-03-20T23:21:14.556Z,72.91
2023-03-20T23:23:42.993Z,72.73
2023-03-20T23:26:13.812Z,72.39
2023-03-20T23:28:46.256Z,72.33
2023-03-20T23:31:17.907Z,72.37
2023-03-20T23:33:50.415Z,72.36
2023-03-20T23:36:35.009Z,72.75
2023-03-20T23:39:04.463Z,72.40
2023-03-20T23:41:57.970Z,72.79
2023-03-20T23:44:22.602Z,72.15
2023-03-20T23:46:51.047Z,72.25
2023-03-20T23:49:19.610Z,72.33
2023-03-20T23:51:48.083Z,72.19
2023-03-20T23:54:16.534Z,72.14
2023-03-20T23:56:44.896Z,72.64
2023-03-20T23:59:22.032Z,72.55
